Time;durP1;ratioP1;P1;durP2;ratioP2;P2;SDS_P1;SDS_P2;PMS_P1;PMS_P2;Temp;Humidity;BMP_temperature;BMP_pressure;BME280_temperature;BME280_humidity;BME280_pressure;Samples;Min_cycle;Max_cycle;Signal;HPM_P1;HPM_P2
2023/11/13 00:01:32;;;;;;;5.53;4.47;;;5.90;99.90;;;;;;4953226;29;20480;-82
2023/11/13 00:03:59;;;;;;;9.00;4.30;;;6.00;99.90;;;;;;4957119;29;20464;-82
2023/11/13 00:06:25;;;;;;;11.00;5.27;;;5.90;99.90;;;;;;4953588;29;20488;-82
2023/11/13 00:08:52;;;;;;;6.90;5.10;;;5.90;99.90;;;;;;4957409;29;20562;-80
2023/11/13 00:11:20;;;;;;;7.30;4.30;;;6.00;99.90;;;;;;4947548;29;20493;-83
2023/11/13 00:13:48;;;;;;;5.93;4.30;;;6.00;99.90;;;;;;4950763;29;20477;-82
2023/11/13 00:16:15;;;;;;;8.23;4.03;;;6.00;99.90;;;;;;4952189;29;20567;-82
2023/11/13 00:18:42;;;;;;;9.80;4.87;;;6.00;99.90;;;;;;4958119;29;20898;-82
2023/11/13 00:21:08;;;;;;;7.87;5.00;;;6.00;99.90;;;;;;4952932;29;20496;-81
2023/11/13 00:23:37;;;;;;;9.23;5.17;;;5.90;99.90;;;;;;4960495;29;20539;-82
2023/11/13 00:26:04;;;;;;;10.83;4.80;;;6.00;99.90;;;;;;4956380;29;20498;-82
2023/11/13 00:28:31;;;;;;;6.27;4.17;;;6.00;99.90;;;;;;4958331;29;20472;-81
2023/11/13 00:30:59;;;;;;;6.60;4.77;;;6.00;99.90;;;;;;4956949;29;20523;-79
2023/11/13 00:33:26;;;;;;;11.27;5.00;;;6.00;99.90;;;;;;4957824;29;20474;-83
2023/11/13 00:35:52;;;;;;;7.13;4.70;;;6.10;99.90;;;;;;4955390;29;20544;-83
2023/11/13 00:38:19;;;;;;;5.07;4.47;;;6.10;99.90;;;;;;4953246;29;20461;-82
2023/11/13 00:40:46;;;;;;;6.23;3.53;;;6.20;99.90;;;;;;4958525;29;20460;-83
2023/11/13 00:43:14;;;;;;;7.37;4.00;;;6.20;99.90;;;;;;4954269;28;20468;-83
2023/11/13 00:45:41;;;;;;;6.90;4.90;;;6.20;99.90;;;;;;4953148;29;20494;-83
2023/11/13 00:48:09;;;;;;;6.97;3.73;;;6.20;99.90;;;;;;4956458;29;20475;-82
2023/11/13 00:50:36;;;;;;;5.27;3.90;;;6.20;99.90;;;;;;4957028;29;21008;-83
2023/11/13 00:53:02;;;;;;;6.73;4.50;;;6.30;99.90;;;;;;4954587;29;20466;-83
2023/11/13 00:55:29;;;;;;;5.10;3.80;;;6.30;99.90;;;;;;4958340;29;20480;-83
2023/11/13 00:57:56;;;;;;;5.70;3.63;;;6.40;99.90;;;;;;4951296;29;20471;-82
2023/11/13 01:00:23;;;;;;;4.73;3.97;;;6.40;99.90;;;;;;4953317;29;20491;-83
2023/11/13 01:02:50;;;;;;;4.50;3.37;;;6.50;99.90;;;;;;4950670;29;20536;-80
2023/11/13 01:05:18;;;;;;;5.77;3.90;;;6.50;99.90;;;;;;4953673;29;21122;-83
2023/11/13 01:07:45;;;;;;;6.10;4.60;;;6.50;99.90;;;;;;4955957;29;20540;-83
2023/11/13 01:10:12;;;;;;;6.67;4.33;;;6.50;99.90;;;;;;4957414;29;20977;-83
2023/11/13 01:12:39;;;;;;;6.00;3.73;;;6.50;99.90;;;;;;4952482;29;20514;-84
2023/11/13 01:15:08;;;;;;;6.80;3.60;;;6.60;99.90;;;;;;4953883;29;20567;-84
2023/11/13 01:17:36;;;;;;;4.90;3.63;;;6.60;99.90;;;;;;4956848;29;20899;-83
2023/11/13 01:20:04;;;;;;;5.93;3.73;;;6.60;99.90;;;;;;4953035;29;20493;-82
2023/11/13 01:22:32;;;;;;;7.27;4.40;;;6.60;99.90;;;;;;4955611;29;20456;-82
2023/11/13 01:24:59;;;;;;;5.57;3.43;;;6.60;99.90;;;;;;4956587;29;20511;-84
2023/11/13 01:27:26;;;;;;;6.23;4.03;;;6.60;99.90;;;;;;4951855;29;20468;-83
2023/11/13 01:29:53;;;;;;;4.93;3.30;;;6.70;99.90;;;;;;4955629;29;20457;-82
2023/11/13 01:32:19;;;;;;;5.40;3.23;;;6.80;99.90;;;;;;4950749;29;20504;-84
2023/11/13 01:34:46;;;;;;;5.03;3.37;;;6.80;99.90;;;;;;4954866;29;20472;-84
2023/11/13 01:37:14;;;;;;;6.93;3.87;;;6.80;99.90;;;;;;4951216;29;20974;-83
2023/11/13 01:39:42;;;;;;;5.40;3.73;;;6.80;99.90;;;;;;4955641;29;20468;-84
2023/11/13 01:42:09;;;;;;;4.60;4.03;;;6.90;99.90;;;;;;4952262;29;20491;-82
2023/11/13 01:44:36;;;;;;;8.67;3.60;;;6.90;99.90;;;;;;4954469;29;20472;-83
2023/11/13 01:47:05;;;;;;;4.70;3.40;;;6.90;99.90;;;;;;4949675;29;20556;-83
2023/11/13 01:49:33;;;;;;;5.40;3.50;;;7.00;99.90;;;;;;4948115;29;20966;-83
2023/11/13 01:52:02;;;;;;;4.50;3.17;;;7.00;99.90;;;;;;4957717;29;20879;-82
2023/11/13 01:54:29;;;;;;;9.27;4.50;;;7.00;99.90;;;;;;4954685;28;20486;-83
2023/11/13 01:57:00;;;;;;;6.20;3.30;;;6.90;99.90;;;;;;4959287;29;20890;-83
2023/11/13 01:59:28;;;;;;;5.50;3.87;;;7.00;99.90;;;;;;4958247;29;20555;-83
2023/11/13 02:01:56;;;;;;;8.37;3.50;;;7.00;99.90;;;;;;4954586;29;20456;-83
2023/11/13 02:04:23;;;;;;;3.90;3.17;;;6.90;99.90;;;;;;4961785;28;20453;-83
2023/11/13 02:06:50;;;;;;;4.77;3.30;;;6.90;99.90;;;;;;4962950;29;20561;-82
2023/11/13 02:09:19;;;;;;;6.20;3.60;;;6.90;99.90;;;;;;4961849;28;20832;-81
2023/11/13 02:11:46;;;;;;;5.30;3.40;;;6.80;99.90;;;;;;4952332;28;20511;-81
2023/11/13 02:14:16;;;;;;;3.80;3.13;;;6.80;99.90;;;;;;4959802;28;21012;-82
2023/11/13 02:16:43;;;;;;;6.33;3.47;;;6.80;99.90;;;;;;4960156;28;20480;-82
2023/11/13 02:19:15;;;;;;;5.20;3.60;;;6.80;99.90;;;;;;4964096;28;20525;-83
2023/11/13 02:21:41;;;;;;;4.30;3.23;;;6.80;99.90;;;;;;4960127;29;20482;-83
2023/11/13 02:24:10;;;;;;;4.90;4.10;;;6.80;99.90;;;;;;4960536;28;20466;-83
2023/11/13 02:26:37;;;;;;;6.27;3.00;;;6.80;99.90;;;;;;4967964;29;20567;-82
2023/11/13 02:29:04;;;;;;;3.60;2.80;;;6.80;99.90;;;;;;4960364;29;20460;-83
2023/11/13 02:31:31;;;;;;;6.70;3.27;;;6.80;99.90;;;;;;4963748;29;20583;-82
2023/11/13 02:33:58;;;;;;;8.37;3.77;;;6.80;99.90;;;;;;4963173;28;20908;-82
2023/11/13 02:36:24;;;;;;;4.83;2.97;;;6.80;99.90;;;;;;4968509;29;20490;-82
2023/11/13 02:38:51;;;;;;;5.13;3.13;;;6.80;99.90;;;;;;4965006;28;20459;-82
2023/11/13 02:41:21;;;;;;;6.93;3.47;;;6.80;99.90;;;;;;4966817;28;20552;-84
2023/11/13 02:43:48;;;;;;;4.43;3.13;;;6.80;99.90;;;;;;4960357;29;20521;-83
2023/11/13 02:46:14;;;;;;;5.40;3.10;;;6.80;99.90;;;;;;4961447;29;20494;-83
2023/11/13 02:48:41;;;;;;;4.90;3.70;;;6.70;99.90;;;;;;4961746;29;20536;-81
2023/11/13 02:51:08;;;;;;;5.60;3.80;;;6.80;99.90;;;;;;4960109;28;21144;-82
2023/11/13 02:53:35;;;;;;;5.87;3.57;;;6.80;99.90;;;;;;4958440;29;20463;-83
2023/11/13 02:56:01;;;;;;;5.90;3.30;;;6.90;99.90;;;;;;4963389;29;20477;-82
2023/11/13 02:58:30;;;;;;;5.37;3.20;;;6.90;99.90;;;;;;4962949;28;20548;-83
2023/11/13 03:00:56;;;;;;;4.57;3.50;;;6.90;99.90;;;;;;4959005;28;20464;-83
2023/11/13 03:03:25;;;;;;;5.57;2.90;;;7.00;99.90;;;;;;4959797;28;20555;-84
2023/11/13 03:05:52;;;;;;;4.03;2.90;;;7.00;99.90;;;;;;4959578;28;20486;-82
2023/11/13 03:08:18;;;;;;;5.00;3.70;;;7.00;99.90;;;;;;4959777;29;20459;-83
2023/11/13 03:10:46;;;;;;;4.90;3.00;;;7.10;99.90;;;;;;4953461;29;20461;-84
2023/11/13 03:13:13;;;;;;;6.97;3.20;;;7.10;99.90;;;;;;4951539;29;20508;-83
2023/11/13 03:15:42;;;;;;;5.43;3.27;;;7.20;99.90;;;;;;4957416;29;20480;-83
2023/11/13 03:18:14;;;;;;;6.50;3.57;;;7.10;99.90;;;;;;4956139;29;20464;-83
2023/11/13 03:20:43;;;;;;;4.30;3.17;;;7.20;99.90;;;;;;4950952;29;20495;-83
2023/11/13 03:23:10;;;;;;;5.53;2.97;;;7.20;99.90;;;;;;4960872;29;20980;-82
2023/11/13 03:25:37;;;;;;;4.30;3.07;;;7.30;99.90;;;;;;4959681;29;20485;-83
2023/11/13 03:28:04;;;;;;;4.97;3.73;;;7.30;99.90;;;;;;4953729;29;20545;-84
2023/11/13 03:30:32;;;;;;;3.93;2.90;;;7.30;99.90;;;;;;4959235;29;20495;-81
2023/11/13 03:33:02;;;;;;;5.17;3.07;;;7.40;99.90;;;;;;4956074;29;20493;-83
2023/11/13 03:35:29;;;;;;;5.60;3.40;;;7.40;99.90;;;;;;4959179;29;21029;-82
2023/11/13 03:37:56;;;;;;;4.07;3.20;;;7.40;99.90;;;;;;4955753;29;20467;-83
2023/11/13 03:40:24;;;;;;;8.37;3.80;;;7.40;99.90;;;;;;4958532;29;20477;-82
2023/11/13 03:42:50;;;;;;;5.60;3.27;;;7.50;99.90;;;;;;4954185;29;20850;-83
2023/11/13 03:45:17;;;;;;;5.40;3.50;;;7.50;99.90;;;;;;4951610;29;20507;-82
2023/11/13 03:47:44;;;;;;;4.80;3.13;;;7.50;99.90;;;;;;4948865;29;20464;-83
2023/11/13 03:50:12;;;;;;;3.90;2.97;;;7.50;99.90;;;;;;4955158;29;20466;-80
2023/11/13 03:52:39;;;;;;;4.30;3.67;;;7.60;99.90;;;;;;4959816;29;21091;-83
2023/11/13 03:55:06;;;;;;;3.80;2.97;;;7.60;99.90;;;;;;4953305;29;21044;-83
2023/11/13 03:57:33;;;;;;;3.93;3.33;;;7.60;99.90;;;;;;4957972;29;20460;-83
2023/11/13 04:00:00;;;;;;;4.90;3.50;;;7.70;99.90;;;;;;4959336;29;20465;-83
2023/11/13 04:02:27;;;;;;;5.30;3.50;;;7.70;99.90;;;;;;4958977;29;20547;-80
2023/11/13 04:04:53;;;;;;;6.77;3.30;;;7.70;99.90;;;;;;4966623;29;20569;-80
2023/11/13 04:07:24;;;;;;;3.30;2.70;;;7.70;99.90;;;;;;4966829;29;20536;-80
2023/11/13 04:09:50;;;;;;;3.50;2.73;;;7.70;99.90;;;;;;4967134;29;20485;-81
2023/11/13 04:12:17;;;;;;;5.47;2.80;;;7.70;99.90;;;;;;4970767;29;20560;-81
2023/11/13 04:14:44;;;;;;;4.17;3.33;;;7.80;99.90;;;;;;4966001;29;20511;-82
2023/11/13 04:17:11;;;;;;;5.00;3.20;;;7.80;99.90;;;;;;4957115;28;20549;-80
2023/11/13 04:19:38;;;;;;;4.73;3.23;;;7.80;99.90;;;;;;4958815;29;20471;-83
2023/11/13 04:22:06;;;;;;;4.77;3.00;;;7.80;99.90;;;;;;4957230;29;20463;-83
2023/11/13 04:24:34;;;;;;;5.93;3.40;;;7.80;99.90;;;;;;4953411;29;20473;-83
2023/11/13 04:27:01;;;;;;;5.03;3.30;;;7.90;99.90;;;;;;4953758;29;20459;-82
2023/11/13 04:29:29;;;;;;;5.27;3.70;;;7.90;99.90;;;;;;4950844;29;20463;-83
2023/11/13 04:31:56;;;;;;;5.10;3.60;;;7.90;99.90;;;;;;4955162;29;20495;-84
2023/11/13 04:34:23;;;;;;;5.00;4.03;;;7.90;99.90;;;;;;4954506;29;20465;-83
2023/11/13 04:36:50;;;;;;;3.50;3.10;;;7.90;99.90;;;;;;4953852;29;20497;-83
2023/11/13 04:39:16;;;;;;;3.90;3.47;;;8.00;99.90;;;;;;4954952;29;20462;-81
2023/11/13 04:41:46;;;;;;;4.07;3.23;;;8.00;99.90;;;;;;4953576;29;20488;-82
2023/11/13 04:44:13;;;;;;;6.10;3.87;;;8.00;99.90;;;;;;4952629;29;20918;-83
2023/11/13 04:46:40;;;;;;;4.80;3.67;;;7.90;99.90;;;;;;4951132;29;20577;-83
2023/11/13 04:49:07;;;;;;;4.30;3.70;;;8.00;99.90;;;;;;4953408;29;20504;-83
2023/11/13 04:51:34;;;;;;;6.20;3.67;;;8.00;99.90;;;;;;4957396;29;20461;-83
2023/11/13 04:54:01;;;;;;;7.00;3.60;;;8.00;99.90;;;;;;4948977;29;20498;-83
2023/11/13 04:56:27;;;;;;;6.57;3.20;;;8.00;99.90;;;;;;4951838;29;20477;-82
2023/11/13 04:58:56;;;;;;;5.33;3.50;;;8.10;99.90;;;;;;4957981;29;20532;-83
2023/11/13 05:01:22;;;;;;;7.33;4.27;;;8.10;99.90;;;;;;4957160;29;20996;-83
2023/11/13 05:03:49;;;;;;;5.00;3.40;;;8.10;99.90;;;;;;4951922;29;20495;-83
2023/11/13 05:06:17;;;;;;;6.07;4.20;;;8.10;99.90;;;;;;4944361;29;20482;-83
2023/11/13 05:08:44;;;;;;;4.43;3.20;;;8.20;99.90;;;;;;4953516;29;21027;-81
2023/11/13 05:11:21;;;;;;;5.20;4.20;;;8.20;99.90;;;;;;4957559;29;20565;-81
2023/11/13 05:13:49;;;;;;;4.43;3.80;;;8.20;99.90;;;;;;4952250;29;20833;-81
2023/11/13 05:16:19;;;;;;;5.57;4.00;;;8.20;99.90;;;;;;4958025;29;21002;-82
2023/11/13 05:18:46;;;;;;;6.30;3.77;;;8.20;99.90;;;;;;4953105;29;20899;-82
2023/11/13 05:21:13;;;;;;;4.43;3.97;;;8.20;99.90;;;;;;4959135;29;20508;-82
2023/11/13 05:23:40;;;;;;;6.10;3.90;;;8.20;99.90;;;;;;4946564;29;20457;-83
2023/11/13 05:26:07;;;;;;;5.10;3.83;;;8.20;99.90;;;;;;4946368;29;20489;-82
2023/11/13 05:28:33;;;;;;;5.17;4.10;;;8.30;99.90;;;;;;4942752;29;20459;-83
2023/11/13 05:31:00;;;;;;;7.17;4.13;;;8.30;99.90;;;;;;4953111;29;20492;-81
2023/11/13 05:33:29;;;;;;;4.67;3.40;;;8.30;99.90;;;;;;4954319;29;20497;-82
2023/11/13 05:35:56;;;;;;;4.40;3.70;;;8.30;99.90;;;;;;4950135;29;20562;-82
2023/11/13 05:38:23;;;;;;;5.93;3.77;;;8.40;99.90;;;;;;4952383;29;20555;-82
2023/11/13 05:40:50;;;;;;;4.60;3.80;;;8.40;99.90;;;;;;4949276;29;20537;-84
2023/11/13 05:43:17;;;;;;;4.60;3.50;;;8.40;99.90;;;;;;4952375;29;20470;-84
2023/11/13 05:45:44;;;;;;;4.93;4.30;;;8.50;99.90;;;;;;4953408;29;20581;-85
2023/11/13 05:48:11;;;;;;;4.00;3.40;;;8.50;99.90;;;;;;4959212;29;20458;-85
2023/11/13 05:50:39;;;;;;;4.67;3.20;;;8.50;99.90;;;;;;4957485;29;20499;-82
2023/11/13 05:53:06;;;;;;;7.60;4.17;;;8.50;99.90;;;;;;4954992;29;20553;-84
2023/11/13 05:55:36;;;;;;;6.13;4.27;;;8.50;99.90;;;;;;4961836;29;20486;-85
2023/11/13 05:58:04;;;;;;;7.33;3.90;;;8.60;99.90;;;;;;4959222;29;20468;-85
2023/11/13 06:00:31;;;;;;;4.90;3.53;;;8.60;99.90;;;;;;4963538;29;20463;-85
2023/11/13 06:02:57;;;;;;;5.57;3.87;;;8.60;99.90;;;;;;4963902;29;20479;-83
2023/11/13 06:05:24;;;;;;;4.43;3.77;;;8.60;99.90;;;;;;4955762;29;20547;-84
2023/11/13 06:07:53;;;;;;;3.93;3.30;;;8.60;99.90;;;;;;4954525;29;20594;-82
2023/11/13 06:10:20;;;;;;;5.67;3.43;;;8.60;99.90;;;;;;4942178;29;20473;-82
2023/11/13 06:12:47;;;;;;;3.23;2.90;;;8.70;99.90;;;;;;4953407;29;20582;-83
2023/11/13 06:15:16;;;;;;;7.43;2.97;;;8.60;99.90;;;;;;4955418;29;21011;-82
2023/11/13 06:17:44;;;;;;;4.17;2.23;;;8.60;99.90;;;;;;4952897;29;20495;-82
2023/11/13 06:20:13;;;;;;;3.80;2.87;;;8.70;99.90;;;;;;4953381;28;20935;-82
2023/11/13 06:22:40;;;;;;;3.20;2.80;;;8.70;99.90;;;;;;4954518;28;20486;-80
2023/11/13 06:25:09;;;;;;;4.07;2.73;;;8.70;99.90;;;;;;4948347;29;20493;-82
2023/11/13 06:27:35;;;;;;;6.93;3.30;;;8.70;99.90;;;;;;4953636;28;20492;-81
2023/11/13 06:30:03;;;;;;;3.07;2.13;;;8.80;99.90;;;;;;4951362;28;20462;-80
2023/11/13 06:32:30;;;;;;;3.47;2.63;;;8.80;99.90;;;;;;4954706;28;20561;-81
2023/11/13 06:34:57;;;;;;;3.60;2.63;;;8.70;99.90;;;;;;4955732;28;20479;-82
2023/11/13 06:37:25;;;;;;;4.73;2.77;;;8.80;99.90;;;;;;4953886;28;20940;-82
2023/11/13 06:39:51;;;;;;;3.50;2.80;;;8.70;99.90;;;;;;4952112;28;20469;-82
2023/11/13 06:42:20;;;;;;;3.23;2.40;;;8.70;99.90;;;;;;4958127;29;20457;-81
2023/11/13 06:44:46;;;;;;;4.20;2.50;;;8.80;99.90;;;;;;4959394;29;21042;-82
2023/11/13 06:47:13;;;;;;;4.10;3.07;;;8.80;99.90;;;;;;4956820;29;20457;-81
2023/11/13 06:49:40;;;;;;;5.30;2.80;;;8.80;99.90;;;;;;4959520;29;20459;-82
2023/11/13 06:52:08;;;;;;;3.73;3.13;;;8.80;99.90;;;;;;4959768;29;20472;-82
2023/11/13 06:54:38;;;;;;;2.70;2.50;;;8.80;99.90;;;;;;4959972;28;20514;-81
2023/11/13 06:57:08;;;;;;;6.03;2.90;;;8.90;99.90;;;;;;4955936;29;20502;-81
2023/11/13 06:59:36;;;;;;;4.03;2.90;;;8.80;99.90;;;;;;4957921;29;20463;-81
2023/11/13 07:02:03;;;;;;;4.17;3.37;;;8.80;99.90;;;;;;4944689;29;20522;-81
2023/11/13 07:04:29;;;;;;;3.40;2.80;;;8.90;99.90;;;;;;4962097;29;20534;-82
2023/11/13 07:06:56;;;;;;;4.23;2.90;;;8.90;99.90;;;;;;4961839;29;20463;-82
2023/11/13 07:09:23;;;;;;;5.23;3.83;;;8.90;99.90;;;;;;4961716;29;20461;-82
2023/11/13 07:11:50;;;;;;;8.17;4.07;;;9.00;99.90;;;;;;4961106;29;20548;-81
2023/11/13 07:14:17;;;;;;;4.10;3.37;;;9.00;99.90;;;;;;4961230;29;20508;-80
2023/11/13 07:16:50;;;;;;;7.03;4.30;;;9.00;99.90;;;;;;4960779;29;20480;-80
2023/11/13 07:19:18;;;;;;;4.93;3.67;;;9.00;99.90;;;;;;4954500;29;20494;-80
2023/11/13 07:21:47;;;;;;;7.93;4.70;;;9.00;99.90;;;;;;4960305;29;20845;-80
2023/11/13 07:24:14;;;;;;;7.47;4.40;;;9.00;99.90;;;;;;4960998;29;20562;-79
2023/11/13 07:26:44;;;;;;;6.00;4.40;;;9.10;99.90;;;;;;4962134;29;20569;-79
2023/11/13 07:29:11;;;;;;;10.40;5.80;;;9.10;99.90;;;;;;4963457;29;20470;-78
2023/11/13 07:31:39;;;;;;;7.03;4.67;;;9.20;99.90;;;;;;4960491;29;20473;-79
2023/11/13 07:34:07;;;;;;;9.63;5.07;;;9.20;99.90;;;;;;4960542;29;20578;-79
2023/11/13 07:36:34;;;;;;;7.70;5.57;;;9.30;99.90;;;;;;4960545;29;20479;-80
2023/11/13 07:39:00;;;;;;;6.13;4.07;;;9.30;99.90;;;;;;4960240;29;20468;-80
2023/11/13 07:41:33;;;;;;;9.63;5.60;;;9.40;99.90;;;;;;4959777;29;20460;-79
2023/11/13 07:44:00;;;;;;;10.20;5.70;;;9.40;99.90;;;;;;4960778;29;20455;-79
2023/11/13 07:46:27;;;;;;;12.50;6.67;;;9.40;99.90;;;;;;4961605;29;20482;-80
2023/11/13 07:48:54;;;;;;;8.60;6.60;;;9.40;99.90;;;;;;4947769;29;20556;-80
2023/11/13 07:51:22;;;;;;;10.50;6.77;;;9.50;99.90;;;;;;4963636;28;20452;-81
2023/11/13 07:53:49;;;;;;;12.00;6.10;;;9.50;99.90;;;;;;4966031;29;20536;-79
2023/11/13 07:56:17;;;;;;;8.87;6.10;;;9.60;99.90;;;;;;4959062;29;20482;-81
2023/11/13 07:58:44;;;;;;;12.33;6.53;;;9.60;99.90;;;;;;4960017;29;20462;-81
2023/11/13 08:01:11;;;;;;;14.10;6.50;;;9.70;99.90;;;;;;4960487;29;20466;-81
2023/11/13 08:03:38;;;;;;;7.73;5.70;;;9.70;99.90;;;;;;4961021;29;20519;-81
2023/11/13 08:06:06;;;;;;;9.37;7.03;;;9.70;99.90;;;;;;4960711;29;20502;-81
2023/11/13 08:08:34;;;;;;;11.37;6.77;;;9.80;99.90;;;;;;4960473;29;20469;-82
2023/11/13 08:11:01;;;;;;;8.23;5.40;;;9.80;99.90;;;;;;4961103;29;20496;-81
2023/11/13 08:13:28;;;;;;;10.17;5.50;;;9.80;99.90;;;;;;4961112;29;20499;-82
2023/11/13 08:15:54;;;;;;;12.57;5.53;;;9.80;99.90;;;;;;4960911;29;20485;-82
2023/11/13 08:18:22;;;;;;;9.40;5.83;;;9.90;99.90;;;;;;4960965;29;20840;-83
2023/11/13 08:20:49;;;;;;;8.00;4.43;;;9.80;99.90;;;;;;4959733;29;20524;-81
2023/11/13 08:23:16;;;;;;;11.37;4.87;;;9.90;99.90;;;;;;4959484;29;20566;-82
2023/11/13 08:25:45;;;;;;;14.80;5.07;;;9.90;99.90;;;;;;4961063;29;20893;-83
2023/11/13 08:28:13;;;;;;;7.53;4.47;;;9.90;99.90;;;;;;4961060;29;20543;-81
2023/11/13 08:30:41;;;;;;;8.40;4.27;;;9.90;99.90;;;;;;4961256;29;20460;-83
2023/11/13 08:33:09;;;;;;;10.47;4.67;;;10.00;99.90;;;;;;4963837;29;20858;-82
2023/11/13 08:35:36;;;;;;;5.40;3.27;;;10.00;99.90;;;;;;4960691;29;20488;-82
2023/11/13 08:38:03;;;;;;;13.97;6.40;;;10.00;99.90;;;;;;4959929;29;20478;-83
2023/11/13 08:40:30;;;;;;;7.67;3.77;;;10.00;99.90;;;;;;4960322;29;20845;-83
2023/11/13 08:42:58;;;;;;;7.20;3.60;;;10.10;99.90;;;;;;4945517;29;20976;-82
2023/11/13 08:45:25;;;;;;;6.70;3.30;;;10.10;99.90;;;;;;4941258;29;20496;-82
2023/11/13 08:47:54;;;;;;;18.80;4.90;;;10.10;99.90;;;;;;4941054;29;20479;-82
2023/11/13 08:50:22;;;;;;;7.93;3.47;;;10.10;99.90;;;;;;4949504;29;21093;-82
2023/11/13 08:52:53;;;;;;;5.53;3.30;;;10.10;99.90;;;;;;4959939;29;20536;-80
2023/11/13 08:55:22;;;;;;;7.60;3.23;;;10.20;99.90;;;;;;4959642;29;20495;-82
2023/11/13 08:57:50;;;;;;;6.50;2.73;;;10.10;99.90;;;;;;4959527;29;20469;-81
2023/11/13 09:00:20;;;;;;;3.80;2.60;;;10.10;99.90;;;;;;4958612;29;20468;-81
2023/11/13 09:02:47;;;;;;;6.10;2.97;;;10.10;99.90;;;;;;4958614;28;20463;-82
2023/11/13 09:05:15;;;;;;;8.20;2.93;;;10.10;99.90;;;;;;4958443;29;20494;-81
2023/11/13 09:07:42;;;;;;;6.57;3.20;;;10.10;99.90;;;;;;4957984;29;20853;-81
2023/11/13 09:10:10;;;;;;;6.67;2.80;;;10.10;99.90;;;;;;4958084;29;20464;-81
2023/11/13 09:12:39;;;;;;;6.23;2.60;;;10.10;99.90;;;;;;4958060;29;20456;-80
2023/11/13 09:15:11;;;;;;;6.73;3.00;;;10.20;99.90;;;;;;4957322;29;20509;-81
2023/11/13 09:17:43;;;;;;;5.87;2.40;;;10.10;99.90;;;;;;4957683;29;20554;-81
2023/11/13 09:20:12;;;;;;;5.70;2.30;;;10.10;99.90;;;;;;4957669;29;20467;-82
2023/11/13 09:22:41;;;;;;;6.17;2.57;;;10.10;99.90;;;;;;4958486;29;21026;-81
2023/11/13 09:25:09;;;;;;;4.37;2.33;;;10.10;99.90;;;;;;4950380;29;20481;-82
2023/11/13 09:27:36;;;;;;;5.70;2.70;;;10.10;99.90;;;;;;4938819;29;20551;-81
2023/11/13 09:30:04;;;;;;;7.67;2.87;;;10.20;99.90;;;;;;4939134;29;20839;-82
2023/11/13 09:32:31;;;;;;;7.33;2.73;;;10.10;99.90;;;;;;4951904;29;20460;-81
2023/11/13 09:34:59;;;;;;;8.77;2.70;;;10.10;99.90;;;;;;4957247;29;20499;-82
2023/11/13 09:37:26;;;;;;;3.90;1.83;;;10.20;99.90;;;;;;4957149;29;20479;-81
2023/11/13 09:39:53;;;;;;;8.30;3.00;;;10.20;99.90;;;;;;4956803;29;20546;-81
2023/11/13 09:42:20;;;;;;;5.23;2.07;;;10.20;99.90;;;;;;4957319;29;20867;-82
2023/11/13 09:44:49;;;;;;;6.90;2.40;;;10.20;99.90;;;;;;4957257;29;21047;-81
2023/11/13 09:47:17;;;;;;;8.37;2.20;;;10.30;99.90;;;;;;4949435;29;20454;-82
2023/11/13 09:49:46;;;;;;;7.00;1.80;;;10.20;99.90;;;;;;4950812;29;20499;-81
2023/11/13 09:52:18;;;;;;;2.77;2.37;;;10.30;99.90;;;;;;4957921;29;20539;-81
2023/11/13 09:54:47;;;;;;;4.30;1.40;;;10.30;99.90;;;;;;4956746;29;21111;-82
2023/11/13 09:57:14;;;;;;;6.97;2.10;;;10.30;99.90;;;;;;4949990;29;20464;-80
2023/11/13 09:59:46;;;;;;;5.77;2.27;;;10.40;99.90;;;;;;4957477;29;20465;-81
2023/11/13 10:02:16;;;;;;;5.50;2.33;;;10.30;99.90;;;;;;4958723;29;20460;-81
2023/11/13 10:04:43;;;;;;;3.43;1.50;;;10.30;99.90;;;;;;4956959;29;20468;-82
2023/11/13 10:07:11;;;;;;;2.63;1.83;;;10.40;99.90;;;;;;4960193;29;20452;-81
2023/11/13 10:09:39;;;;;;;4.60;2.10;;;10.40;99.90;;;;;;4959805;29;20964;-81
2023/11/13 10:12:09;;;;;;;2.97;1.87;;;10.30;99.90;;;;;;4960931;29;20458;-82
2023/11/13 10:14:36;;;;;;;3.33;1.93;;;10.40;99.90;;;;;;4960630;28;20538;-82
2023/11/13 10:17:04;;;;;;;4.60;1.30;;;10.40;99.90;;;;;;4964257;29;20550;-82
2023/11/13 10:19:31;;;;;;;5.53;1.80;;;10.40;99.90;;;;;;4964024;29;20497;-82
2023/11/13 10:21:58;;;;;;;2.67;1.53;;;10.40;99.90;;;;;;4958460;29;20494;-82
2023/11/13 10:24:26;;;;;;;3.77;1.80;;;10.50;99.90;;;;;;4963824;29;20460;-82
2023/11/13 10:26:56;;;;;;;2.60;1.77;;;10.50;99.90;;;;;;4965947;29;20463;-82
2023/11/13 10:29:26;;;;;;;2.80;1.40;;;10.50;99.90;;;;;;4964969;29;20460;-83
2023/11/13 10:31:55;;;;;;;3.57;1.53;;;10.50;99.90;;;;;;4965006;29;20459;-83
2023/11/13 10:34:22;;;;;;;3.10;1.57;;;10.50;99.90;;;;;;4965410;29;20948;-83
2023/11/13 10:37:08;;;;;;;2.10;1.10;;;10.50;99.90;;;;;;4965311;29;20520;-83
2023/11/13 10:39:36;;;;;;;5.27;1.70;;;10.50;99.90;;;;;;4964918;29;20540;-83
2023/11/13 10:42:06;;;;;;;5.57;1.73;;;10.50;99.90;;;;;;4965472;29;20486;-83
2023/11/13 10:44:38;;;;;;;4.70;1.17;;;10.40;99.90;;;;;;4965162;29;20948;-83
2023/11/13 10:47:21;;;;;;;1.70;1.20;;;10.40;99.90;;;;;;4964893;29;20502;-83
2023/11/13 10:49:49;;;;;;;5.43;1.10;;;10.40;99.90;;;;;;4958655;29;20456;-83
2023/11/13 10:52:17;;;;;;;2.33;1.00;;;10.50;99.90;;;;;;4945338;29;20485;-83
2023/11/13 10:54:48;;;;;;;2.10;1.30;;;10.50;99.90;;;;;;4951068;29;20498;-83
2023/11/13 10:57:16;;;;;;;1.70;1.30;;;10.60;99.90;;;;;;4964394;29;20464;-83
2023/11/13 10:59:46;;;;;;;2.97;1.50;;;10.60;99.90;;;;;;4952256;29;20544;-83
2023/11/13 11:02:27;;;;;;;3.00;1.30;;;10.60;99.90;;;;;;4945384;29;20589;-83
2023/11/13 11:04:56;;;;;;;5.90;1.20;;;10.70;99.90;;;;;;4945588;29;20540;-83
2023/11/13 11:07:26;;;;;;;2.73;1.43;;;10.60;99.90;;;;;;4944871;29;20471;-84
2023/11/13 11:09:57;;;;;;;1.60;1.10;;;10.60;99.90;;;;;;4942730;29;20453;-83
2023/11/13 11:12:31;;;;;;;2.67;1.10;;;10.60;99.90;;;;;;4960687;29;20459;-83
2023/11/13 11:15:17;;;;;;;2.47;1.90;;;10.70;99.90;;;;;;4963327;29;20507;-83
2023/11/13 11:17:52;;;;;;;3.10;1.10;;;10.70;99.90;;;;;;4963913;29;20457;-84
2023/11/13 11:20:25;;;;;;;3.00;1.20;;;10.70;99.90;;;;;;4964670;28;20534;-84
2023/11/13 11:23:00;;;;;;;2.00;1.50;;;10.60;99.90;;;;;;4963078;29;20539;-84
2023/11/13 11:25:44;;;;;;;1.80;0.93;;;10.60;99.90;;;;;;4963815;29;20467;-84
2023/11/13 11:28:37;;;;;;;2.47;1.20;;;10.70;99.90;;;;;;4964035;29;20456;-83
2023/11/13 11:31:19;;;;;;;4.90;1.53;;;10.70;99.90;;;;;;4963888;28;20501;-84
2023/11/13 11:33:46;;;;;;;6.80;1.50;;;10.80;99.90;;;;;;4965639;29;20486;-84
2023/11/13 11:36:13;;;;;;;6.00;2.33;;;10.80;99.90;;;;;;4970569;29;20550;-84
2023/11/13 11:38:40;;;;;;;3.03;1.67;;;10.80;99.90;;;;;;4971183;29;20485;-85
2023/11/13 11:41:38;;;;;;;3.17;1.40;;;10.80;99.90;;;;;;4974075;29;20500;-84
2023/11/13 11:44:11;;;;;;;3.60;1.67;;;10.90;99.90;;;;;;4975862;29;20433;-84
2023/11/13 11:46:41;;;;;;;2.77;1.57;;;10.90;99.90;;;;;;4966810;29;20485;-83
2023/11/13 11:49:08;;;;;;;4.73;2.00;;;11.00;99.90;;;;;;4975378;29;20447;-85
2023/11/13 11:51:35;;;;;;;3.97;1.70;;;11.10;99.90;;;;;;4978443;29;20488;-83
2023/11/13 11:54:03;;;;;;;4.90;1.60;;;11.20;99.90;;;;;;4977069;29;20505;-84
2023/11/13 11:56:30;;;;;;;5.53;1.90;;;11.20;99.90;;;;;;4976394;29;20490;-85
2023/11/13 11:58:57;;;;;;;4.97;1.60;;;11.30;99.90;;;;;;4970301;29;20529;-84
2023/11/13 12:01:27;;;;;;;5.10;2.17;;;11.30;99.90;;;;;;4966115;29;20511;-85
2023/11/13 12:03:54;;;;;;;6.73;2.13;;;11.30;99.90;;;;;;4973035;29;20518;-84
2023/11/13 12:06:21;;;;;;;9.83;2.67;;;11.40;99.90;;;;;;4963259;29;21038;-84
2023/11/13 12:08:51;;;;;;;6.10;2.27;;;11.50;99.90;;;;;;4975023;29;20508;-81
2023/11/13 12:11:20;;;;;;;3.63;2.30;;;11.60;99.90;;;;;;4977992;29;20440;-84
2023/11/13 12:13:47;;;;;;;4.50;1.93;;;11.70;99.90;;;;;;4978171;29;20464;-84
2023/11/13 12:16:14;;;;;;;10.30;2.60;;;11.70;99.90;;;;;;4977732;29;20485;-82
2023/11/13 12:18:42;;;;;;;5.93;1.67;;;11.80;99.90;;;;;;4965941;29;20470;-82
2023/11/13 12:21:09;;;;;;;5.20;1.47;;;11.80;99.90;;;;;;4969208;28;20438;-83
2023/11/13 12:23:36;;;;;;;3.70;2.10;;;11.80;99.90;;;;;;4971455;28;20520;-83
2023/11/13 12:26:04;;;;;;;3.50;1.80;;;11.70;99.90;;;;;;4970597;29;20505;-82
2023/11/13 12:28:31;;;;;;;6.63;2.43;;;11.80;99.90;;;;;;4977262;29;20473;-82
2023/11/13 12:30:58;;;;;;;7.70;2.10;;;11.80;99.90;;;;;;4977226;29;20501;-83
2023/11/13 12:33:26;;;;;;;2.97;1.47;;;11.80;99.90;;;;;;4976634;29;20472;-84
2023/11/13 12:35:58;;;;;;;3.40;2.03;;;11.80;99.90;;;;;;4977061;29;20523;-82
2023/11/13 12:38:26;;;;;;;4.87;1.73;;;11.80;99.90;;;;;;4976148;28;20464;-82
2023/11/13 12:40:55;;;;;;;9.70;1.87;;;11.80;99.90;;;;;;4977022;29;20436;-82
2023/11/13 12:43:24;;;;;;;2.47;1.70;;;11.80;99.90;;;;;;4975054;28;20463;-82
2023/11/13 12:45:51;;;;;;;6.80;2.27;;;11.80;99.90;;;;;;4974756;29;20507;-84
2023/11/13 12:48:23;;;;;;;3.90;1.77;;;11.90;99.90;;;;;;4967933;29;20468;-82
2023/11/13 12:50:50;;;;;;;8.70;2.10;;;12.00;99.90;;;;;;4973240;29;20462;-81
2023/11/13 12:53:21;;;;;;;3.20;1.90;;;12.10;99.90;;;;;;4973353;29;20501;-81
2023/11/13 12:55:49;;;;;;;4.27;1.90;;;12.20;99.90;;;;;;4970654;28;20479;-82
2023/11/13 12:58:16;;;;;;;6.80;2.20;;;12.20;99.90;;;;;;4974740;29;20452;-83